sensor_id;sensor_type;location;lat;lon;timestamp;pressure;altitude;pressure_sealevel;temperature;humidity
30618;BME280;17384;51.214;9.202;2023-05-10T00:00:25;97833.59;;;13.54;91.99
30618;BME280;17384;51.214;9.202;2023-05-10T00:02:52;97834.63;;;13.48;91.98
30618;BME280;17384;51.214;9.202;2023-05-10T00:05:18;97829.94;;;13.44;92.62
30618;BME280;17384;51.214;9.202;2023-05-10T00:07:45;97827.69;;;13.36;93.33
30618;BME280;17384;51.214;9.202;2023-05-10T00:10:11;97824.97;;;13.36;93.53
30618;BME280;17384;51.214;9.202;2023-05-10T00:12:38;97833.16;;;13.36;93.59
30618;BME280;17384;51.214;9.202;2023-05-10T00:15:05;97822.44;;;13.29;94.33
30618;BME280;17384;51.214;9.202;2023-05-10T00:17:32;97828.16;;;13.28;94.56
30618;BME280;17384;51.214;9.202;2023-05-10T00:19:58;97821.06;;;13.27;94.86
30618;BME280;17384;51.214;9.202;2023-05-10T00:22:23;97828.59;;;13.19;95.29
30618;BME280;17384;51.214;9.202;2023-05-10T00:24:50;97825.63;;;13.21;96.19
30618;BME280;17384;51.214;9.202;2023-05-10T00:27:16;97822.19;;;13.31;95.75
30618;BME280;17384;51.214;9.202;2023-05-10T00:29:43;97821.38;;;13.30;96.19
30618;BME280;17384;51.214;9.202;2023-05-10T00:32:08;97823.78;;;13.27;96.47
30618;BME280;17384;51.214;9.202;2023-05-10T00:34:34;97818.03;;;13.23;96.85
30618;BME280;17384;51.214;9.202;2023-05-10T00:36:59;97827.72;;;13.41;96.61
30618;BME280;17384;51.214;9.202;2023-05-10T00:39:25;97818.78;;;13.45;96.50
30618;BME280;17384;51.214;9.202;2023-05-10T00:41:53;97815.03;;;13.51;96.15
30618;BME280;17384;51.214;9.202;2023-05-10T00:44:20;97813.19;;;13.57;96.06
30618;BME280;17384;51.214;9.202;2023-05-10T00:46:46;97819.09;;;13.49;96.15
30618;BME280;17384;51.214;9.202;2023-05-10T00:49:13;97811.75;;;13.49;96.96
30618;BME280;17384;51.214;9.202;2023-05-10T00:51:40;97816.47;;;13.59;95.42
30618;BME280;17384;51.214;9.202;2023-05-10T00:54:08;97813.75;;;13.59;95.48
30618;BME280;17384;51.214;9.202;2023-05-10T00:56:34;97810.59;;;13.45;95.82
30618;BME280;17384;51.214;9.202;2023-05-10T00:59:00;97821.69;;;13.34;97.55
30618;BME280;17384;51.214;9.202;2023-05-10T01:01:25;97813.25;;;13.35;97.54
30618;BME280;17384;51.214;9.202;2023-05-10T01:03:51;97807.94;;;13.24;98.21
30618;BME280;17384;51.214;9.202;2023-05-10T01:06:17;97816.06;;;13.18;98.87
30618;BME280;17384;51.214;9.202;2023-05-10T01:08:42;97804.00;;;13.14;99.14
30618;BME280;17384;51.214;9.202;2023-05-10T01:11:08;97801.88;;;13.16;99.21
30618;BME280;17384;51.214;9.202;2023-05-10T01:13:36;97807.81;;;13.13;99.62
30618;BME280;17384;51.214;9.202;2023-05-10T01:16:03;97801.88;;;13.16;99.30
30618;BME280;17384;51.214;9.202;2023-05-10T01:18:30;97813.00;;;13.15;99.47
30618;BME280;17384;51.214;9.202;2023-05-10T01:34:42;97801.22;;;13.31;98.40
30618;BME280;17384;51.214;9.202;2023-05-10T01:37:16;97800.91;;;13.28;98.77
30618;BME280;17384;51.214;9.202;2023-05-10T01:42:20;97798.28;;;13.38;97.84
30618;BME280;17384;51.214;9.202;2023-05-10T01:47:37;97799.84;;;13.29;98.88
30618;BME280;17384;51.214;9.202;2023-05-10T01:50:04;97797.72;;;13.36;97.63
30618;BME280;17384;51.214;9.202;2023-05-10T01:52:38;97789.50;;;13.31;97.96
30618;BME280;17384;51.214;9.202;2023-05-10T01:55:09;97801.72;;;13.28;98.79
30618;BME280;17384;51.214;9.202;2023-05-10T01:57:39;97805.09;;;13.35;98.10
30618;BME280;17384;51.214;9.202;2023-05-10T02:00:06;97796.69;;;13.42;97.65
30618;BME280;17384;51.214;9.202;2023-05-10T02:02:36;97809.53;;;13.46;97.42
30618;BME280;17384;51.214;9.202;2023-05-10T02:05:04;97801.31;;;13.41;97.36
30618;BME280;17384;51.214;9.202;2023-05-10T02:07:32;97802.13;;;13.42;97.64
30618;BME280;17384;51.214;9.202;2023-05-10T02:09:58;97802.09;;;13.37;98.12
30618;BME280;17384;51.214;9.202;2023-05-10T02:12:24;97806.97;;;13.35;98.20
30618;BME280;17384;51.214;9.202;2023-05-10T02:14:53;97813.25;;;13.13;98.21
30618;BME280;17384;51.214;9.202;2023-05-10T02:17:20;97821.44;;;13.35;98.33
30618;BME280;17384;51.214;9.202;2023-05-10T02:19:47;97818.44;;;13.37;97.96
30618;BME280;17384;51.214;9.202;2023-05-10T02:22:13;97813.50;;;13.34;98.04
30618;BME280;17384;51.214;9.202;2023-05-10T02:24:41;97819.41;;;13.26;98.25
30618;BME280;17384;51.214;9.202;2023-05-10T02:27:08;97824.97;;;13.14;98.56
30618;BME280;17384;51.214;9.202;2023-05-10T02:29:35;97823.97;;;12.98;99.11
30618;BME280;17384;51.214;9.202;2023-05-10T02:32:02;97823.66;;;13.16;99.03
30618;BME280;17384;51.214;9.202;2023-05-10T02:34:28;97821.56;;;13.02;99.20
30618;BME280;17384;51.214;9.202;2023-05-10T02:36:56;97825.78;;;13.14;99.33
30618;BME280;17384;51.214;9.202;2023-05-10T02:39:22;97829.03;;;13.11;99.06
30618;BME280;17384;51.214;9.202;2023-05-10T02:41:49;97824.13;;;13.13;99.27
30618;BME280;17384;51.214;9.202;2023-05-10T02:44:17;97836.13;;;13.12;98.93
30618;BME280;17384;51.214;9.202;2023-05-10T02:46:43;97836.41;;;13.11;98.90
30618;BME280;17384;51.214;9.202;2023-05-10T02:49:09;97830.50;;;12.97;98.72
30618;BME280;17384;51.214;9.202;2023-05-10T02:51:37;97837.41;;;13.05;96.96
30618;BME280;17384;51.214;9.202;2023-05-10T02:54:22;97841.78;;;13.06;95.63
30618;BME280;17384;51.214;9.202;2023-05-10T02:56:56;97826.78;;;13.03;93.19
30618;BME280;17384;51.214;9.202;2023-05-10T02:59:22;97842.47;;;12.96;93.84
30618;BME280;17384;51.214;9.202;2023-05-10T03:01:48;97835.88;;;12.92;94.64
30618;BME280;17384;51.214;9.202;2023-05-10T03:04:13;97831.00;;;12.94;94.75
30618;BME280;17384;51.214;9.202;2023-05-10T03:06:39;97838.66;;;12.97;94.94
30618;BME280;17384;51.214;9.202;2023-05-10T03:09:05;97840.31;;;12.98;95.06
30618;BME280;17384;51.214;9.202;2023-05-10T03:11:47;97844.56;;;12.89;94.78
30618;BME280;17384;51.214;9.202;2023-05-10T03:17:50;97828.53;;;12.93;94.63
30618;BME280;17384;51.214;9.202;2023-05-10T03:20:24;97842.47;;;12.96;94.29
30618;BME280;17384;51.214;9.202;2023-05-10T03:22:55;97853.88;;;12.93;93.70
30618;BME280;17384;51.214;9.202;2023-05-10T03:25:22;97851.31;;;12.86;93.44
30618;BME280;17384;51.214;9.202;2023-05-10T03:27:48;97862.22;;;12.86;93.35
30618;BME280;17384;51.214;9.202;2023-05-10T03:30:15;97861.84;;;12.78;92.71
30618;BME280;17384;51.214;9.202;2023-05-10T03:32:42;97859.63;;;12.75;92.65
30618;BME280;17384;51.214;9.202;2023-05-10T03:35:08;97863.94;;;12.71;92.76
30618;BME280;17384;51.214;9.202;2023-05-10T03:37:34;97867.91;;;12.63;92.93
30618;BME280;17384;51.214;9.202;2023-05-10T03:40:00;97855.44;;;12.67;92.54
30618;BME280;17384;51.214;9.202;2023-05-10T03:42:25;97870.38;;;12.65;92.06
30618;BME280;17384;51.214;9.202;2023-05-10T03:44:50;97875.00;;;12.64;92.27
30618;BME280;17384;51.214;9.202;2023-05-10T03:47:16;97885.69;;;12.71;91.86
30618;BME280;17384;51.214;9.202;2023-05-10T03:49:41;97874.09;;;12.59;91.60
30618;BME280;17384;51.214;9.202;2023-05-10T03:52:07;97876.03;;;12.58;92.01
30618;BME280;17384;51.214;9.202;2023-05-10T03:54:32;97877.34;;;12.56;92.11
30618;BME280;17384;51.214;9.202;2023-05-10T03:56:57;97878.34;;;12.71;91.13
30618;BME280;17384;51.214;9.202;2023-05-10T03:59:23;97882.97;;;12.71;91.18
30618;BME280;17384;51.214;9.202;2023-05-10T04:01:48;97882.25;;;12.59;91.42
30618;BME280;17384;51.214;9.202;2023-05-10T04:04:14;97891.38;;;12.47;91.71
30618;BME280;17384;51.214;9.202;2023-05-10T04:06:39;97891.69;;;12.51;91.73
30618;BME280;17384;51.214;9.202;2023-05-10T04:09:05;97899.28;;;12.49;92.13
30618;BME280;17384;51.214;9.202;2023-05-10T04:11:30;97885.75;;;12.54;92.36
30618;BME280;17384;51.214;9.202;2023-05-10T04:13:56;97892.03;;;12.54;92.32
30618;BME280;17384;51.214;9.202;2023-05-10T04:16:21;97888.56;;;12.42;92.64
30618;BME280;17384;51.214;9.202;2023-05-10T04:18:47;97895.72;;;12.48;93.08
30618;BME280;17384;51.214;9.202;2023-05-10T04:21:13;97904.88;;;12.42;92.67
30618;BME280;17384;51.214;9.202;2023-05-10T04:23:39;97892.53;;;12.35;92.47
30618;BME280;17384;51.214;9.202;2023-05-10T04:26:05;97900.94;;;12.33;92.77
30618;BME280;17384;51.214;9.202;2023-05-10T04:28:30;97914.53;;;12.33;92.86
30618;BME280;17384;51.214;9.202;2023-05-10T04:31:03;97895.94;;;12.25;91.94
30618;BME280;17384;51.214;9.202;2023-05-10T04:33:29;97910.09;;;12.27;92.67
30618;BME280;17384;51.214;9.202;2023-05-10T04:35:55;97905.50;;;12.28;92.86
30618;BME280;17384;51.214;9.202;2023-05-10T04:38:20;97914.63;;;12.22;93.09
30618;BME280;17384;51.214;9.202;2023-05-10T04:40:45;97910.50;;;12.19;93.34
30618;BME280;17384;51.214;9.202;2023-05-10T04:43:11;97902.09;;;12.20;92.95
30618;BME280;17384;51.214;9.202;2023-05-10T04:45:36;97908.94;;;12.23;93.18
30618;BME280;17384;51.214;9.202;2023-05-10T04:48:02;97917.09;;;12.23;93.09
30618;BME280;17384;51.214;9.202;2023-05-10T04:50:27;97925.34;;;12.28;93.07
30618;BME280;17384;51.214;9.202;2023-05-10T04:52:52;97914.38;;;12.23;93.17
30618;BME280;17384;51.214;9.202;2023-05-10T04:55:18;97924.44;;;12.23;93.00
30618;BME280;17384;51.214;9.202;2023-05-10T04:57:43;97926.34;;;12.22;93.56
30618;BME280;17384;51.214;9.202;2023-05-10T05:00:10;97936.22;;;12.28;92.40
30618;BME280;17384;51.214;9.202;2023-05-10T05:02:36;97934.34;;;12.29;92.71
30618;BME280;17384;51.214;9.202;2023-05-10T05:05:01;97934.09;;;12.30;92.47
30618;BME280;17384;51.214;9.202;2023-05-10T05:07:27;97934.34;;;12.29;92.88
30618;BME280;17384;51.214;9.202;2023-05-10T05:09:52;97942.50;;;12.29;92.88
30618;BME280;17384;51.214;9.202;2023-05-10T05:12:17;97935.72;;;12.31;93.15
30618;BME280;17384;51.214;9.202;2023-05-10T05:14:43;97946.03;;;12.29;92.61
30618;BME280;17384;51.214;9.202;2023-05-10T05:17:08;97944.03;;;12.41;92.12
30618;BME280;17384;51.214;9.202;2023-05-10T05:19:34;97949.00;;;12.44;91.63
30618;BME280;17384;51.214;9.202;2023-05-10T05:21:59;97961.09;;;12.37;91.39
30618;BME280;17384;51.214;9.202;2023-05-10T05:24:25;97965.63;;;12.48;90.89
30618;BME280;17384;51.214;9.202;2023-05-10T05:26:50;97969.75;;;12.50;90.77
30618;BME280;17384;51.214;9.202;2023-05-10T05:29:15;97968.13;;;12.49;91.52
30618;BME280;17384;51.214;9.202;2023-05-10T05:31:41;97963.25;;;12.51;91.55
30618;BME280;17384;51.214;9.202;2023-05-10T05:34:06;97968.53;;;12.41;91.52
30618;BME280;17384;51.214;9.202;2023-05-10T05:36:32;97980.88;;;12.32;92.32
30618;BME280;17384;51.214;9.202;2023-05-10T05:38:58;97969.69;;;12.29;91.81
30618;BME280;17384;51.214;9.202;2023-05-10T05:41:23;97980.38;;;12.35;91.75
30618;BME280;17384;51.214;9.202;2023-05-10T05:43:49;97985.81;;;12.35;92.25
30618;BME280;17384;51.214;9.202;2023-05-10T05:46:15;97990.53;;;12.40;92.03
30618;BME280;17384;51.214;9.202;2023-05-10T05:48:40;97988.13;;;12.43;92.31
30618;BME280;17384;51.214;9.202;2023-05-10T05:51:06;97985.56;;;12.37;92.52
30618;BME280;17384;51.214;9.202;2023-05-10T05:53:31;97976.53;;;12.48;92.74
30618;BME280;17384;51.214;9.202;2023-05-10T05:55:58;97985.34;;;12.55;91.88
30618;BME280;17384;51.214;9.202;2023-05-10T05:58:25;97999.66;;;12.67;91.50
30618;BME280;17384;51.214;9.202;2023-05-10T06:00:51;98005.44;;;12.71;91.53
30618;BME280;17384;51.214;9.202;2023-05-10T06:03:20;97999.53;;;12.57;91.40
30618;BME280;17384;51.214;9.202;2023-05-10T06:05:46;98003.56;;;12.54;91.03
30618;BME280;17384;51.214;9.202;2023-05-10T06:08:11;98005.13;;;12.50;91.22
30618;BME280;17384;51.214;9.202;2023-05-10T06:10:37;98007.44;;;12.42;91.26
30618;BME280;17384;51.214;9.202;2023-05-10T06:13:03;98007.09;;;12.72;90.87
30618;BME280;17384;51.214;9.202;2023-05-10T06:15:28;98018.63;;;12.62;90.05
30618;BME280;17384;51.214;9.202;2023-05-10T06:17:53;98021.22;;;12.52;90.56
30618;BME280;17384;51.214;9.202;2023-05-10T06:20:19;98026.16;;;12.55;90.63
30618;BME280;17384;51.214;9.202;2023-05-10T06:22:44;98029.28;;;12.64;90.87
30618;BME280;17384;51.214;9.202;2023-05-10T06:25:10;98037.44;;;12.64;90.12
30618;BME280;17384;51.214;9.202;2023-05-10T06:27:36;98030.50;;;12.89;89.24
30618;BME280;17384;51.214;9.202;2023-05-10T06:30:02;98024.53;;;13.09;88.27
30618;BME280;17384;51.214;9.202;2023-05-10T06:32:28;98025.19;;;13.16;88.02
30618;BME280;17384;51.214;9.202;2023-05-10T06:34:53;98031.94;;;13.31;86.96
30618;BME280;17384;51.214;9.202;2023-05-10T06:37:19;98046.22;;;13.38;87.57
30618;BME280;17384;51.214;9.202;2023-05-10T06:39:44;98042.53;;;13.27;86.72
30618;BME280;17384;51.214;9.202;2023-05-10T06:42:10;98044.50;;;13.32;86.61
30618;BME280;17384;51.214;9.202;2023-05-10T06:44:35;98052.16;;;13.35;87.37
30618;BME280;17384;51.214;9.202;2023-05-10T06:47:01;98055.38;;;13.32;88.09
30618;BME280;17384;51.214;9.202;2023-05-10T06:49:26;98050.53;;;13.34;88.35
30618;BME280;17384;51.214;9.202;2023-05-10T06:51:52;98048.38;;;13.36;88.21
30618;BME280;17384;51.214;9.202;2023-05-10T06:54:17;98045.31;;;13.32;87.98
30618;BME280;17384;51.214;9.202;2023-05-10T06:56:42;98061.16;;;13.35;87.82
30618;BME280;17384;51.214;9.202;2023-05-10T06:59:08;98058.44;;;13.57;87.65
30618;BME280;17384;51.214;9.202;2023-05-10T07:01:33;98056.41;;;13.47;88.15
30618;BME280;17384;51.214;9.202;2023-05-10T07:03:59;98067.38;;;13.52;87.75
30618;BME280;17384;51.214;9.202;2023-05-10T07:06:24;98075.44;;;13.64;86.98
30618;BME280;17384;51.214;9.202;2023-05-10T07:08:50;98056.31;;;13.59;87.67
30618;BME280;17384;51.214;9.202;2023-05-10T07:11:15;98071.94;;;13.47;87.36
30618;BME280;17384;51.214;9.202;2023-05-10T07:13:41;98067.44;;;13.36;87.57
30618;BME280;17384;51.214;9.202;2023-05-10T07:16:09;98071.75;;;13.32;88.79
30618;BME280;17384;51.214;9.202;2023-05-10T07:18:35;98075.38;;;13.37;88.78
30618;BME280;17384;51.214;9.202;2023-05-10T07:21:01;98079.28;;;13.46;88.93
30618;BME280;17384;51.214;9.202;2023-05-10T07:23:27;98075.97;;;13.44;87.64
30618;BME280;17384;51.214;9.202;2023-05-10T07:25:52;98082.13;;;13.35;86.36
30618;BME280;17384;51.214;9.202;2023-05-10T07:28:18;98081.63;;;13.38;86.22
30618;BME280;17384;51.214;9.202;2023-05-10T07:30:44;98080.94;;;13.47;84.44
30618;BME280;17384;51.214;9.202;2023-05-10T07:33:11;98082.66;;;13.75;83.46
30618;BME280;17384;51.214;9.202;2023-05-10T07:35:37;98090.78;;;14.14;82.33
30618;BME280;17384;51.214;9.202;2023-05-10T07:38:03;98086.50;;;14.45;81.96
30618;BME280;17384;51.214;9.202;2023-05-10T07:40:28;98092.03;;;14.55;81.04
30618;BME280;17384;51.214;9.202;2023-05-10T07:42:54;98096.38;;;14.83;79.49
30618;BME280;17384;51.214;9.202;2023-05-10T07:45:20;98099.84;;;15.05;78.58
30618;BME280;17384;51.214;9.202;2023-05-10T07:47:46;98098.50;;;15.50;77.55
30618;BME280;17384;51.214;9.202;2023-05-10T07:50:15;98110.69;;;15.69;76.75
30618;BME280;17384;51.214;9.202;2023-05-10T07:52:43;98107.03;;;16.06;76.24
30618;BME280;17384;51.214;9.202;2023-05-10T07:55:09;98111.47;;;16.27;74.80
30618;BME280;17384;51.214;9.202;2023-05-10T07:57:34;98114.97;;;16.07;73.95
30618;BME280;17384;51.214;9.202;2023-05-10T08:00:00;98118.50;;;16.03;72.38
30618;BME280;17384;51.214;9.202;2023-05-10T08:02:26;98116.38;;;15.63;73.76
30618;BME280;17384;51.214;9.202;2023-05-10T08:04:51;98117.34;;;15.83;73.17
30618;BME280;17384;51.214;9.202;2023-05-10T08:07:17;98115.75;;;15.98;72.39
30618;BME280;17384;51.214;9.202;2023-05-10T08:09:42;98115.03;;;16.28;71.56
30618;BME280;17384;51.214;9.202;2023-05-10T08:12:08;98121.25;;;16.08;71.74
30618;BME280;17384;51.214;9.202;2023-05-10T08:14:35;98114.06;;;15.91;70.45
30618;BME280;17384;51.214;9.202;2023-05-10T08:17:02;98120.59;;;15.80;73.54
30618;BME280;17384;51.214;9.202;2023-05-10T08:19:28;98115.91;;;15.76;71.79
30618;BME280;17384;51.214;9.202;2023-05-10T08:21:53;98116.72;;;15.71;72.47
30618;BME280;17384;51.214;9.202;2023-05-10T08:24:21;98130.50;;;15.49;74.51
30618;BME280;17384;51.214;9.202;2023-05-10T08:26:47;98123.75;;;15.62;73.97
30618;BME280;17384;51.214;9.202;2023-05-10T08:29:13;98124.44;;;15.84;74.18
30618;BME280;17384;51.214;9.202;2023-05-10T08:31:39;98134.78;;;15.77;72.88
30618;BME280;17384;51.214;9.202;2023-05-10T08:34:04;98136.59;;;16.14;72.56
30618;BME280;17384;51.214;9.202;2023-05-10T08:36:30;98131.50;;;16.48;69.78
30618;BME280;17384;51.214;9.202;2023-05-10T08:38:57;98132.69;;;16.77;69.05
30618;BME280;17384;51.214;9.202;2023-05-10T08:41:23;98132.97;;;16.76;70.14
30618;BME280;17384;51.214;9.202;2023-05-10T08:43:51;98132.22;;;16.08;70.37
30618;BME280;17384;51.214;9.202;2023-05-10T08:46:18;98137.31;;;16.62;69.30
30618;BME280;17384;51.214;9.202;2023-05-10T08:48:45;98142.03;;;16.81;68.83
30618;BME280;17384;51.214;9.202;2023-05-10T08:51:18;98120.66;;;16.99;67.14
30618;BME280;17384;51.214;9.202;2023-05-10T08:53:44;98137.91;;;17.30;65.17
30618;BME280;17384;51.214;9.202;2023-05-10T08:56:10;98134.09;;;17.46;64.30
30618;BME280;17384;51.214;9.202;2023-05-10T08:58:37;98141.75;;;17.34;66.41
30618;BME280;17384;51.214;9.202;2023-05-10T09:01:03;98139.56;;;17.41;66.60
30618;BME280;17384;51.214;9.202;2023-05-10T09:03:30;98148.88;;;16.89;66.51
30618;BME280;17384;51.214;9.202;2023-05-10T09:05:56;98141.75;;;16.98;67.08
30618;BME280;17384;51.214;9.202;2023-05-10T09:08:23;98154.91;;;16.96;68.08
30618;BME280;17384;51.214;9.202;2023-05-10T09:10:53;98150.22;;;16.66;69.56
30618;BME280;17384;51.214;9.202;2023-05-10T09:13:19;98156.25;;;16.68;70.19
30618;BME280;17384;51.214;9.202;2023-05-10T09:15:45;98156.38;;;16.31;69.93
30618;BME280;17384;51.214;9.202;2023-05-10T09:18:11;98159.81;;;16.79;70.26
30618;BME280;17384;51.214;9.202;2023-05-10T09:20:37;98151.09;;;17.48;68.58
30618;BME280;17384;51.214;9.202;2023-05-10T09:23:02;98160.06;;;18.04;67.23
30618;BME280;17384;51.214;9.202;2023-05-10T09:25:28;98158.06;;;18.20;64.43
30618;BME280;17384;51.214;9.202;2023-05-10T09:27:53;98167.53;;;18.53;61.86
30618;BME280;17384;51.214;9.202;2023-05-10T09:30:28;98163.00;;;18.18;62.62
30618;BME280;17384;51.214;9.202;2023-05-10T09:32:55;98162.28;;;17.62;64.50
30618;BME280;17384;51.214;9.202;2023-05-10T09:35:22;98170.28;;;17.68;63.01
30618;BME280;17384;51.214;9.202;2023-05-10T09:37:51;98166.66;;;17.98;62.92
30618;BME280;17384;51.214;9.202;2023-05-10T09:40:28;98172.91;;;18.14;63.47
30618;BME280;17384;51.214;9.202;2023-05-10T09:43:02;98176.31;;;18.50;61.20
30618;BME280;17384;51.214;9.202;2023-05-10T09:45:32;98169.34;;;18.78;58.71
30618;BME280;17384;51.214;9.202;2023-05-10T09:47:59;98168.75;;;19.20;57.94
30618;BME280;17384;51.214;9.202;2023-05-10T09:50:26;98177.91;;;19.44;57.69
30618;BME280;17384;51.214;9.202;2023-05-10T09:52:56;98175.00;;;19.93;55.01
30618;BME280;17384;51.214;9.202;2023-05-10T09:55:46;98168.66;;;20.65;55.60
30618;BME280;17384;51.214;9.202;2023-05-10T09:58:11;98169.47;;;21.40;50.27
30618;BME280;17384;51.214;9.202;2023-05-10T10:00:38;98171.31;;;21.77;52.85
30618;BME280;17384;51.214;9.202;2023-05-10T10:03:04;98166.31;;;21.79;52.25
30618;BME280;17384;51.214;9.202;2023-05-10T10:05:34;98175.66;;;21.51;49.64
30618;BME280;17384;51.214;9.202;2023-05-10T10:08:03;98164.75;;;22.06;48.90
30618;BME280;17384;51.214;9.202;2023-05-10T10:10:31;98171.41;;;21.72;50.55
30618;BME280;17384;51.214;9.202;2023-05-10T10:12:57;98167.72;;;22.23;50.03
30618;BME280;17384;51.214;9.202;2023-05-10T10:15:23;98163.25;;;21.94;49.31
30618;BME280;17384;51.214;9.202;2023-05-10T10:17:49;98169.00;;;21.98;49.25
30618;BME280;17384;51.214;9.202;2023-05-10T10:20:17;98167.81;;;20.45;52.68
30618;BME280;17384;51.214;9.202;2023-05-10T10:22:42;98168.94;;;20.20;52.26
30618;BME280;17384;51.214;9.202;2023-05-10T10:25:10;98153.91;;;19.84;52.91
30618;BME280;17384;51.214;9.202;2023-05-10T10:36:04;98151.94;;;18.38;55.60
30618;BME280;17384;51.214;9.202;2023-05-10T10:41:35;98160.22;;;18.28;58.03
30618;BME280;17384;51.214;9.202;2023-05-10T10:52:37;98158.75;;;17.36;61.65
30618;BME280;17384;51.214;9.202;2023-05-10T10:55:10;98152.16;;;17.57;59.67
30618;BME280;17384;51.214;9.202;2023-05-10T10:57:43;98157.38;;;17.08;59.51
30618;BME280;17384;51.214;9.202;2023-05-10T11:00:23;98149.72;;;17.05;60.11
30618;BME280;17384;51.214;9.202;2023-05-10T11:07:54;98148.31;;;17.58;61.24
30618;BME280;17384;51.214;9.202;2023-05-10T11:10:21;98164.66;;;18.19;57.24
30618;BME280;17384;51.214;9.202;2023-05-10T11:13:00;98152.38;;;18.01;59.20
30618;BME280;17384;51.214;9.202;2023-05-10T11:15:35;98162.56;;;17.85;58.17
30618;BME280;17384;51.214;9.202;2023-05-10T11:18:29;98171.09;;;17.33;57.72
30618;BME280;17384;51.214;9.202;2023-05-10T11:21:01;98170.53;;;16.96;60.53
30618;BME280;17384;51.214;9.202;2023-05-10T11:26:09;98170.25;;;16.82;62.38
30618;BME280;17384;51.214;9.202;2023-05-10T11:28:45;98164.06;;;16.44;64.49
30618;BME280;17384;51.214;9.202;2023-05-10T11:31:13;98172.41;;;16.02;67.47
30618;BME280;17384;51.214;9.202;2023-05-10T11:33:50;98185.94;;;15.77;69.45
30618;BME280;17384;51.214;9.202;2023-05-10T11:36:18;98191.09;;;15.73;69.95
30618;BME280;17384;51.214;9.202;2023-05-10T11:38:44;98189.72;;;15.39;71.46
30618;BME280;17384;51.214;9.202;2023-05-10T11:41:11;98186.84;;;15.18;72.66
30618;BME280;17384;51.214;9.202;2023-05-10T11:43:39;98182.91;;;15.09;73.15
30618;BME280;17384;51.214;9.202;2023-05-10T11:46:07;98195.81;;;15.14;73.33
30618;BME280;17384;51.214;9.202;2023-05-10T11:48:33;98191.13;;;15.09;70.92
30618;BME280;17384;51.214;9.202;2023-05-10T11:50:58;98189.78;;;15.12;73.37
30618;BME280;17384;51.214;9.202;2023-05-10T11:53:27;98190.13;;;15.20;72.80
30618;BME280;17384;51.214;9.202;2023-05-10T11:55:53;98185.97;;;15.13;70.78
30618;BME280;17384;51.214;9.202;2023-05-10T11:58:18;98200.75;;;15.17;74.23
30618;BME280;17384;51.214;9.202;2023-05-10T12:00:44;98198.06;;;15.22;74.25
30618;BME280;17384;51.214;9.202;2023-05-10T12:03:11;98186.31;;;15.21;74.15
30618;BME280;17384;51.214;9.202;2023-05-10T12:05:37;98194.88;;;15.35;74.42
30618;BME280;17384;51.214;9.202;2023-05-10T12:08:13;98192.28;;;15.50;74.98
30618;BME280;17384;51.214;9.202;2023-05-10T12:10:39;98194.72;;;15.47;73.44
30618;BME280;17384;51.214;9.202;2023-05-10T12:13:05;98202.50;;;15.60;74.97
30618;BME280;17384;51.214;9.202;2023-05-10T12:15:30;98201.22;;;15.41;74.82
30618;BME280;17384;51.214;9.202;2023-05-10T12:17:56;98204.63;;;15.53;75.16
30618;BME280;17384;51.214;9.202;2023-05-10T12:20:27;98201.56;;;15.81;74.73
30618;BME280;17384;51.214;9.202;2023-05-10T12:22:55;98205.09;;;15.77;71.77
30618;BME280;17384;51.214;9.202;2023-05-10T12:25:22;98202.94;;;15.84;71.81
30618;BME280;17384;51.214;9.202;2023-05-10T12:27:52;98199.97;;;15.90;73.57
30618;BME280;17384;51.214;9.202;2023-05-10T12:30:25;98206.97;;;16.23;71.17
30618;BME280;17384;51.214;9.202;2023-05-10T12:32:51;98207.56;;;16.31;71.81
30618;BME280;17384;51.214;9.202;2023-05-10T12:35:17;98211.44;;;16.45;72.18
30618;BME280;17384;51.214;9.202;2023-05-10T12:37:47;98208.94;;;16.33;70.68
30618;BME280;17384;51.214;9.202;2023-05-10T12:40:13;98214.34;;;16.85;69.95
30618;BME280;17384;51.214;9.202;2023-05-10T12:42:39;98219.59;;;17.07;68.36
30618;BME280;17384;51.214;9.202;2023-05-10T12:45:06;98222.03;;;16.83;69.88
30618;BME280;17384;51.214;9.202;2023-05-10T12:47:32;98225.69;;;16.47;71.36
30618;BME280;17384;51.214;9.202;2023-05-10T12:49:59;98219.34;;;16.31;72.64
30618;BME280;17384;51.214;9.202;2023-05-10T12:52:25;98216.63;;;16.36;71.56
30618;BME280;17384;51.214;9.202;2023-05-10T12:54:51;98223.38;;;16.81;72.39
30618;BME280;17384;51.214;9.202;2023-05-10T12:57:17;98223.63;;;16.64;72.01
30618;BME280;17384;51.214;9.202;2023-05-10T12:59:43;98229.34;;;16.63;70.39
30618;BME280;17384;51.214;9.202;2023-05-10T13:02:09;98225.00;;;16.72;68.89
30618;BME280;17384;51.214;9.202;2023-05-10T13:04:35;98213.06;;;17.39;68.09
30618;BME280;17384;51.214;9.202;2023-05-10T13:07:02;98213.03;;;18.05;65.31
30618;BME280;17384;51.214;9.202;2023-05-10T13:09:28;98214.09;;;18.14;62.99
30618;BME280;17384;51.214;9.202;2023-05-10T13:11:56;98216.25;;;18.32;63.92
30618;BME280;17384;51.214;9.202;2023-05-10T13:14:22;98214.13;;;17.99;61.37
30618;BME280;17384;51.214;9.202;2023-05-10T13:16:47;98208.66;;;17.99;61.36
30618;BME280;17384;51.214;9.202;2023-05-10T13:19:16;98223.19;;;18.04;60.80
30618;BME280;17384;51.214;9.202;2023-05-10T13:21:42;98227.31;;;17.86;59.97
30618;BME280;17384;51.214;9.202;2023-05-10T13:24:10;98225.13;;;17.58;60.04
30618;BME280;17384;51.214;9.202;2023-05-10T13:26:36;98227.59;;;17.59;59.47
30618;BME280;17384;51.214;9.202;2023-05-10T13:29:02;98219.34;;;17.80;60.55
30618;BME280;17384;51.214;9.202;2023-05-10T13:31:27;98236.38;;;17.97;58.32
30618;BME280;17384;51.214;9.202;2023-05-10T13:33:53;98224.50;;;18.17;58.35
30618;BME280;17384;51.214;9.202;2023-05-10T13:36:18;98224.75;;;18.31;58.78
30618;BME280;17384;51.214;9.202;2023-05-10T13:38:44;98225.09;;;18.04;59.30
30618;BME280;17384;51.214;9.202;2023-05-10T13:41:10;98235.25;;;17.63;61.19
30618;BME280;17384;51.214;9.202;2023-05-10T13:43:35;98232.78;;;17.61;61.74
30618;BME280;17384;51.214;9.202;2023-05-10T13:46:01;98251.44;;;17.59;61.67
30618;BME280;17384;51.214;9.202;2023-05-10T13:48:27;98244.84;;;16.37;61.83